createdAt,value
2019-01-03T00:02:54.189Z,78.20
2019-01-03T00:05:50.523Z,78.30
2019-01-03T00:09:01.559Z,76.80
2019-01-03T00:12:04.015Z,75.50
2019-01-03T00:15:05.289Z,74.60
2019-01-03T00:18:10.818Z,74.60
2019-01-03T00:21:15.518Z,74.80
2019-01-03T00:24:29.363Z,75.20
2019-01-03T00:27:28.460Z,75.30
2019-01-03T00:30:28.744Z,75.50
2019-01-03T00:33:37.728Z,75.80
2019-01-03T00:36:37.741Z,76.60
2019-01-03T00:39:39.560Z,74.80
2019-01-03T00:42:39.580Z,75.20
2019-01-03T00:45:49.125Z,75.40
2019-01-03T00:48:50.800Z,75.80
2019-01-03T00:51:49.220Z,76.30
2019-01-03T00:55:02.757Z,78.30
2019-01-03T00:58:02.467Z,78.40
2019-01-03T01:01:18.472Z,78.30
2019-01-03T01:04:15.841Z,76.00
2019-01-03T01:07:17.862Z,76.70
2019-01-03T01:10:27.062Z,75.80
2019-01-03T01:13:36.869Z,75.40
2019-01-03T01:16:41.855Z,78.80
2019-01-03T01:19:45.623Z,78.20
2019-01-03T01:22:44.874Z,80.00
2019-01-03T01:25:59.493Z,81.00
2019-01-03T01:28:57.625Z,76.80
2019-01-03T01:31:55.189Z,75.70
2019-01-03T01:34:53.368Z,75.80
2019-01-03T01:37:55.278Z,75.20
2019-01-03T01:41:05.388Z,75.20
2019-01-03T01:44:15.591Z,75.50
2019-01-03T01:47:18.641Z,76.40
2019-01-03T01:50:15.638Z,78.80
2019-01-03T01:53:24.585Z,75.70
2019-01-03T01:56:21.826Z,78.70
2019-01-03T01:59:24.256Z,78.50
2019-01-03T02:02:24.629Z,75.90
2019-01-03T02:05:26.757Z,75.40
2019-01-03T02:08:27.700Z,75.60
2019-01-03T02:11:38.827Z,77.80
2019-01-03T02:14:46.175Z,79.10
2019-01-03T02:17:47.471Z,79.20
2019-01-03T02:21:05.272Z,79.20
2019-01-03T02:24:09.588Z,78.90
2019-01-03T02:27:05.308Z,77.80
2019-01-03T02:30:07.788Z,76.70
2019-01-03T02:33:10.987Z,76.40
2019-01-03T02:36:06.298Z,77.20
2019-01-03T02:39:12.767Z,76.70
2019-01-03T02:41:57.735Z,75.90
2019-01-03T02:45:04.831Z,75.50
2019-01-03T02:48:22.708Z,77.70
2019-01-03T02:51:32.903Z,76.00
2019-01-03T02:54:33.769Z,79.00
2019-01-03T02:57:47.297Z,75.70
2019-01-03T03:00:44.250Z,75.60
2019-01-03T03:03:40.280Z,78.20
2019-01-03T03:06:48.979Z,79.10
2019-01-03T03:09:40.322Z,81.10
2019-01-03T03:12:40.650Z,77.70
2019-01-03T03:15:49.626Z,76.30
2019-01-03T03:18:47.759Z,81.90
2019-01-03T03:21:41.330Z,79.20
2019-01-03T03:24:45.391Z,81.70
2019-01-03T03:27:44.974Z,82.60
2019-01-03T03:30:47.209Z,81.60
2019-01-03T03:33:51.604Z,82.50
2019-01-03T03:37:05.752Z,77.90
2019-01-03T03:40:12.486Z,77.70
2019-01-03T03:43:24.800Z,78.10
2019-01-03T03:46:21.812Z,77.50
2019-01-03T03:49:36.013Z,74.30
2019-01-03T03:52:35.918Z,74.80
2019-01-03T03:55:36.903Z,75.10
2019-01-03T03:58:41.797Z,75.80
2019-01-03T04:01:54.013Z,75.00
2019-01-03T04:04:52.638Z,75.70
2019-01-03T04:08:07.690Z,79.70
2019-01-03T04:11:16.643Z,78.30
2019-01-03T04:14:28.960Z,76.70
2019-01-03T04:17:44.019Z,77.20
2019-01-03T04:20:39.748Z,79.60
2019-01-03T04:23:48.326Z,80.10
2019-01-03T04:26:49.881Z,79.60
2019-01-03T04:30:05.078Z,78.00
2019-01-03T04:33:02.981Z,76.30
2019-01-03T04:36:02.544Z,75.50
2019-01-03T04:39:02.251Z,75.40
2019-01-03T04:42:00.573Z,76.00
2019-01-03T04:44:57.740Z,76.10
2019-01-03T04:47:59.864Z,76.80
2019-01-03T04:51:14.943Z,76.20
2019-01-03T04:54:13.778Z,74.60
2019-01-03T04:57:22.047Z,73.90
2019-01-03T05:00:25.548Z,75.80
2019-01-03T05:03:22.411Z,72.50
2019-01-03T05:06:36.907Z,72.00
2019-01-03T05:09:44.012Z,72.40
2019-01-03T05:12:50.416Z,71.70
2019-01-03T05:15:54.430Z,71.80
2019-01-03T05:18:51.382Z,72.40
2019-01-03T05:21:52.017Z,74.10
2019-01-03T05:24:48.400Z,72.20
2019-01-03T05:27:54.072Z,72.50
2019-01-03T05:30:59.500Z,74.40
2019-01-03T05:33:58.862Z,73.30
2019-01-03T05:36:57.034Z,75.00
2019-01-03T05:40:03.513Z,75.50
2019-01-03T05:43:04.505Z,74.90
2019-01-03T05:46:09.065Z,75.00
2019-01-03T05:49:08.537Z,73.80
2019-01-03T05:52:12.507Z,72.80
2019-01-03T05:55:19.900Z,75.80
2019-01-03T05:58:19.922Z,75.90
2019-01-03T06:01:24.858Z,79.60
2019-01-03T06:04:38.440Z,76.20
2019-01-03T06:07:40.006Z,76.10
2019-01-03T06:10:57.840Z,74.50
2019-01-03T06:14:15.115Z,75.70
2019-01-03T06:17:20.621Z,75.00
2019-01-03T06:20:29.501Z,75.90
2019-01-03T06:23:37.510Z,75.10
2019-01-03T06:26:46.794Z,75.10
2019-01-03T06:29:56.906Z,74.30
2019-01-03T06:32:56.923Z,73.80
2019-01-03T06:36:13.899Z,75.10
2019-01-03T06:39:11.715Z,73.00
2019-01-03T06:42:08.339Z,73.60
2019-01-03T06:45:08.246Z,73.50
2019-01-03T06:48:21.963Z,74.50
2019-01-03T06:51:22.552Z,75.10
2019-01-03T06:54:27.141Z,77.10
2019-01-03T06:57:33.148Z,76.30
2019-01-03T07:00:33.722Z,73.50
2019-01-03T07:03:52.791Z,74.40
2019-01-03T07:06:52.767Z,72.60
2019-01-03T07:09:51.560Z,73.80
2019-01-03T07:12:51.933Z,75.00
2019-01-03T07:16:03.156Z,75.20
2019-01-03T07:22:53.086Z,76.90
2019-01-03T07:26:03.597Z,76.20
2019-01-03T07:29:09.398Z,76.80
2019-01-03T07:32:29.707Z,75.20
2019-01-03T07:35:43.128Z,75.90
2019-01-03T07:38:43.138Z,75.20
2019-01-03T07:41:51.593Z,75.00
2019-01-03T07:45:02.113Z,75.60
2019-01-03T07:48:03.039Z,74.90
2019-01-03T07:51:05.834Z,74.50
2019-01-03T07:54:11.073Z,76.20
2019-01-03T07:57:18.123Z,76.60
2019-01-03T08:00:28.931Z,73.10
2019-01-03T08:03:29.828Z,72.90
2019-01-03T08:06:26.820Z,73.30
2019-01-03T08:09:28.070Z,73.80
2019-01-03T08:12:47.709Z,74.60
2019-01-03T08:15:45.889Z,74.90
2019-01-03T08:18:54.559Z,72.20
2019-01-03T08:21:52.124Z,72.60
2019-01-03T08:24:51.526Z,72.90
2019-01-03T08:27:54.014Z,72.90
2019-01-03T08:30:51.575Z,73.60
2019-01-03T08:33:51.592Z,74.00
2019-01-03T08:37:05.083Z,75.90
2019-01-03T08:40:10.065Z,75.30
2019-01-03T08:43:14.034Z,73.70
2019-01-03T08:46:16.191Z,73.70
2019-01-03T08:49:15.615Z,73.40
2019-01-03T08:52:23.930Z,73.40
2019-01-03T08:55:28.558Z,73.60
2019-01-03T08:58:27.059Z,74.50
2019-01-03T09:01:24.920Z,74.10
2019-01-03T09:04:24.015Z,74.00
2019-01-03T09:07:38.204Z,73.10
2019-01-03T09:10:36.701Z,73.50
2019-01-03T09:13:44.670Z,74.10
2019-01-03T09:16:41.041Z,74.20
2019-01-03T09:19:47.778Z,74.40
2019-01-03T09:22:47.798Z,74.40
2019-01-03T09:26:06.605Z,73.30
2019-01-03T09:29:03.266Z,73.80
2019-01-03T09:32:20.121Z,73.60
2019-01-03T09:35:29.097Z,75.80
2019-01-03T09:38:31.272Z,73.30
2019-01-03T09:41:30.294Z,74.00
2019-01-03T09:44:28.806Z,74.60
2019-01-03T09:47:11.977Z,74.30
2019-01-03T09:49:55.984Z,74.90
2019-01-03T09:52:39.151Z,74.40
2019-01-03T09:55:25.654Z,74.60
2019-01-03T09:58:07.341Z,74.10
2019-01-03T10:00:50.989Z,77.90
2019-01-03T10:03:34.061Z,73.30
2019-01-03T10:06:15.651Z,74.00
2019-01-03T10:08:59.260Z,73.70
2019-01-03T10:11:43.255Z,73.70
2019-01-03T10:14:26.561Z,74.40
2019-01-03T10:17:10.609Z,73.70
2019-01-03T10:19:53.304Z,74.10
2019-01-03T10:22:37.783Z,73.60
2019-01-03T10:25:20.646Z,73.30
2019-01-03T10:28:04.317Z,74.00
2019-01-03T10:30:47.154Z,73.40
2019-01-03T10:33:29.346Z,73.20
2019-01-03T10:36:24.126Z,73.10
2019-01-03T10:39:03.602Z,73.20
2019-01-03T10:41:47.077Z,73.80
2019-01-03T10:44:30.208Z,73.10
2019-01-03T10:47:13.594Z,73.00
2019-01-03T10:49:57.071Z,72.80
2019-01-03T10:52:40.766Z,72.20
2019-01-03T10:55:23.300Z,73.10
2019-01-03T10:58:06.374Z,72.20
2019-01-03T11:00:54.362Z,73.20
2019-01-03T11:03:41.911Z,72.20
2019-01-03T11:06:30.260Z,72.20
2019-01-03T11:09:14.263Z,73.40
2019-01-03T11:11:58.919Z,74.30
2019-01-03T11:14:42.705Z,72.70
2019-01-03T11:17:24.309Z,72.40
2019-01-03T11:20:07.992Z,72.30
2019-01-03T11:22:58.177Z,72.00
2019-01-03T11:25:43.762Z,72.10
2019-01-03T11:28:26.272Z,71.40
2019-01-03T11:31:09.705Z,72.00
2019-01-03T11:33:55.948Z,72.40
2019-01-03T11:36:41.369Z,71.60
2019-01-03T11:39:25.839Z,71.10
2019-01-03T11:42:25.328Z,72.40
2019-01-03T11:45:41.902Z,71.60
2019-01-03T11:48:32.093Z,71.10
2019-01-03T11:51:19.219Z,72.20
2019-01-03T11:54:05.720Z,72.00
2019-01-03T11:56:51.385Z,71.80
2019-01-03T11:59:53.743Z,72.50
2019-01-03T12:02:41.345Z,71.70
2019-01-03T12:05:36.005Z,72.20
2019-01-03T12:08:24.638Z,71.80
2019-01-03T12:11:23.101Z,71.90
2019-01-03T12:14:13.438Z,71.20
2019-01-03T12:16:59.802Z,71.40
2019-01-03T12:19:50.402Z,71.20
2019-01-03T12:22:59.217Z,70.80
2019-01-03T12:25:51.981Z,71.20
2019-01-03T12:28:33.444Z,72.00
2019-01-03T12:31:30.150Z,71.40
2019-01-03T12:34:17.223Z,70.70
2019-01-03T12:37:16.320Z,70.50
2019-01-03T12:40:07.173Z,71.70
2019-01-03T12:42:59.378Z,70.10
2019-01-03T12:46:03.837Z,70.20
2019-01-03T12:48:50.954Z,70.60
2019-01-03T12:51:46.936Z,71.50
2019-01-03T12:54:35.285Z,71.00
2019-01-03T12:57:43.020Z,72.60
2019-01-03T13:00:39.321Z,71.00
2019-01-03T13:03:56.441Z,70.90
2019-01-03T13:06:54.769Z,71.20
2019-01-03T13:09:55.650Z,70.20
2019-01-03T13:12:42.218Z,70.90
2019-01-03T13:15:37.324Z,70.90
2019-01-03T13:18:30.276Z,70.70
2019-01-03T13:21:24.161Z,70.60
2019-01-03T13:24:24.423Z,70.50
2019-01-03T13:27:24.414Z,71.10
2019-01-03T13:30:30.055Z,71.10
2019-01-03T13:33:20.870Z,70.90
2019-01-03T13:36:08.857Z,70.90
2019-01-03T13:39:17.580Z,71.00
2019-01-03T13:42:02.472Z,70.60
2019-01-03T13:45:01.900Z,71.20
2019-01-03T13:48:02.232Z,71.20
2019-01-03T13:51:10.241Z,71.40
2019-01-03T13:54:02.888Z,71.80
2019-01-03T13:57:20.482Z,72.00
2019-01-03T14:00:07.234Z,72.20
2019-01-03T14:03:35.820Z,71.20
2019-01-03T14:06:34.260Z,71.20
2019-01-03T14:09:51.224Z,71.40
2019-01-03T14:12:51.448Z,72.20
2019-01-03T14:15:44.268Z,71.40
2019-01-03T14:18:45.414Z,71.40
2019-01-03T14:21:55.875Z,71.70
2019-01-03T14:24:58.402Z,71.30
2019-01-03T14:28:03.287Z,71.40
2019-01-03T14:31:28.179Z,71.30
2019-01-03T14:34:23.344Z,71.20
2019-01-03T14:37:46.957Z,70.90
2019-01-03T14:40:59.335Z,70.70
2019-01-03T14:44:05.618Z,71.40
2019-01-03T14:47:20.220Z,70.70
2019-01-03T14:50:24.896Z,70.90
2019-01-03T14:53:17.804Z,71.10
2019-01-03T14:56:40.484Z,70.90
2019-01-03T14:59:50.457Z,70.50
2019-01-03T15:02:56.007Z,70.60
2019-01-03T15:05:50.544Z,70.60
2019-01-03T15:09:02.218Z,70.50
2019-01-03T15:12:12.359Z,70.60
2019-01-03T15:15:13.912Z,70.70
2019-01-03T15:18:07.714Z,70.70
2019-01-03T15:21:22.815Z,70.40
2019-01-03T15:24:29.333Z,70.00
2019-01-03T15:27:37.036Z,70.10
2019-01-03T15:30:51.527Z,69.90
2019-01-03T15:33:46.877Z,69.70
2019-01-03T15:36:55.226Z,69.10
2019-01-03T15:40:10.913Z,69.40
2019-01-03T15:43:05.569Z,69.10
2019-01-03T15:46:31.231Z,69.60
2019-01-03T15:49:36.431Z,69.50
2019-01-03T15:52:41.379Z,69.10
2019-01-03T15:55:47.536Z,69.00
2019-01-03T15:58:37.416Z,69.20
2019-01-03T16:01:24.844Z,68.80
2019-01-03T16:04:51.021Z,69.00
2019-01-03T16:08:19.591Z,68.80
2019-01-03T16:11:29.110Z,69.20
2019-01-03T16:14:20.568Z,69.00
2019-01-03T16:17:19.379Z,68.80
2019-01-03T16:20:07.409Z,69.60
2019-01-03T16:22:56.331Z,69.00
2019-01-03T16:25:43.498Z,69.00
2019-01-03T16:28:35.977Z,69.20
2019-01-03T16:31:23.613Z,69.10
2019-01-03T16:34:13.563Z,69.70
2019-01-03T16:37:17.465Z,69.80
2019-01-03T16:40:02.431Z,70.00
2019-01-03T16:43:01.486Z,70.00
2019-01-03T16:45:47.385Z,69.70
2019-01-03T16:48:33.627Z,69.80
2019-01-03T16:51:19.506Z,69.90
2019-01-03T16:54:07.552Z,69.90
2019-01-03T16:56:55.833Z,70.00
2019-01-03T16:59:42.405Z,70.00
2019-01-03T17:02:26.096Z,70.20
2019-01-03T17:05:09.529Z,70.40
2019-01-03T17:07:53.711Z,70.20
2019-01-03T17:10:37.322Z,70.20
2019-01-03T17:13:22.641Z,70.50
2019-01-03T17:16:06.647Z,70.60
2019-01-03T17:18:51.344Z,71.00
2019-01-03T17:21:35.050Z,71.10
2019-01-03T17:24:22.339Z,70.90
2019-01-03T17:27:07.481Z,71.10
2019-01-03T17:29:49.943Z,71.00
2019-01-03T17:32:33.992Z,70.90
2019-01-03T17:35:22.952Z,71.10
2019-01-03T17:38:08.662Z,71.10
2019-01-03T17:40:52.866Z,71.40
2019-01-03T17:43:36.030Z,71.40
2019-01-03T17:46:18.573Z,71.00
2019-01-03T17:49:00.469Z,70.60
2019-01-03T17:51:44.672Z,70.50
2019-01-03T17:54:30.359Z,70.40
2019-01-03T17:57:15.626Z,70.50
2019-01-03T17:59:59.424Z,70.70
2019-01-03T18:02:44.955Z,70.90
2019-01-03T18:05:29.355Z,71.10
2019-01-03T18:08:12.440Z,71.10
2019-01-03T18:10:59.297Z,71.20
2019-01-03T18:13:42.658Z,71.40
2019-01-03T18:16:25.686Z,71.80
2019-01-03T18:19:08.053Z,72.00
2019-01-03T18:21:51.492Z,72.10
2019-01-03T18:24:34.650Z,72.80
2019-01-03T18:27:19.534Z,72.20
2019-01-03T18:30:03.012Z,72.40
2019-01-03T18:32:48.595Z,72.30
2019-01-03T18:35:31.988Z,72.70
2019-01-03T18:38:16.028Z,72.50
2019-01-03T18:40:59.157Z,72.50
2019-01-03T18:43:49.032Z,72.30
2019-01-03T18:46:31.243Z,72.20
2019-01-03T18:49:14.982Z,72.30
2019-01-03T18:51:58.677Z,72.30
2019-01-03T18:54:43.075Z,72.20
2019-01-03T18:57:27.479Z,72.20
2019-01-03T19:00:11.523Z,72.50
2019-01-03T19:02:55.726Z,72.80
2019-01-03T19:05:37.700Z,72.60
2019-01-03T19:08:20.236Z,72.50
2019-01-03T19:11:04.733Z,72.30
2019-01-03T19:13:48.068Z,72.30
2019-01-03T19:16:32.691Z,72.30
2019-01-03T19:19:16.472Z,72.30
2019-01-03T19:22:00.513Z,72.40
2019-01-03T19:24:40.526Z,72.80
2019-01-03T19:27:23.052Z,72.90
2019-01-03T19:30:05.590Z,72.80
2019-01-03T19:32:47.730Z,72.70
2019-01-03T19:35:33.335Z,72.30
2019-01-03T19:38:16.737Z,72.20
2019-01-03T19:41:00.789Z,72.30
2019-01-03T19:43:43.674Z,72.50
2019-01-03T19:46:34.131Z,72.70
2019-01-03T19:52:16.766Z,73.20
2019-01-03T19:55:16.418Z,73.20
2019-01-03T19:57:59.242Z,72.80
2019-01-03T20:00:44.525Z,73.30
2019-01-03T20:03:29.486Z,73.40
2019-01-03T20:06:14.449Z,73.30
2019-01-03T20:08:56.651Z,73.30
2019-01-03T20:11:43.063Z,73.30
2019-01-03T20:14:24.703Z,73.60
2019-01-03T20:20:10.303Z,73.70
2019-01-03T20:22:54.658Z,73.60
2019-01-03T20:25:38.088Z,73.70
2019-01-03T20:28:30.479Z,73.80
2019-01-03T20:31:12.635Z,73.80
2019-01-03T20:33:58.800Z,74.00
2019-01-03T20:36:41.343Z,73.60
2019-01-03T20:39:25.389Z,73.60
2019-01-03T20:42:13.123Z,73.10
2019-01-03T20:44:56.558Z,72.90
2019-01-03T20:47:42.189Z,72.90
2019-01-03T20:50:24.703Z,72.50
2019-01-03T20:53:09.666Z,73.00
2019-01-03T20:55:52.747Z,73.50
2019-01-03T20:58:36.530Z,73.70
2019-01-03T21:01:19.300Z,73.80
2019-01-03T21:04:00.276Z,73.80
2019-01-03T21:06:43.781Z,73.70
2019-01-03T21:09:26.220Z,73.60
2019-01-03T21:12:12.463Z,73.70
2019-01-03T21:14:54.359Z,73.80
2019-01-03T21:17:35.596Z,73.90
2019-01-03T21:20:26.753Z,73.60
2019-01-03T21:23:10.758Z,73.50
2019-01-03T21:25:52.696Z,73.60
2019-01-03T21:28:35.512Z,73.70
2019-01-03T21:31:20.174Z,73.80
2019-01-03T21:34:06.321Z,74.20
2019-01-03T21:36:50.724Z,74.30
2019-01-03T21:39:33.235Z,73.80
2019-01-03T21:42:15.440Z,74.20
2019-01-03T21:44:58.608Z,74.20
2019-01-03T21:47:41.860Z,73.70
2019-01-03T21:50:24.154Z,73.70
2019-01-03T21:53:07.583Z,73.80
2019-01-03T21:55:51.634Z,74.10
2019-01-03T21:58:34.758Z,73.90
2019-01-03T22:01:17.619Z,74.30
2019-01-03T22:04:00.964Z,73.90
2019-01-03T22:06:44.796Z,74.40
2019-01-03T22:09:28.488Z,74.10
2019-01-03T22:12:11.894Z,73.90
2019-01-03T22:14:55.706Z,73.90
2019-01-03T22:17:37.835Z,74.00
2019-01-03T22:20:28.723Z,74.50
2019-01-03T22:23:15.175Z,74.40
2019-01-03T22:25:59.269Z,74.20
2019-01-03T22:28:42.345Z,74.10
2019-01-03T22:31:25.824Z,74.10
2019-01-03T22:34:08.641Z,74.40
2019-01-03T22:36:52.900Z,74.60
2019-01-03T22:39:36.736Z,74.40
2019-01-03T22:42:18.632Z,74.20
2019-01-03T22:45:09.437Z,74.10
2019-01-03T22:47:52.562Z,74.40
2019-01-03T22:50:35.644Z,74.30
2019-01-03T22:53:20.655Z,74.00
2019-01-03T22:56:03.430Z,74.20
2019-01-03T22:58:46.914Z,74.30
2019-01-03T23:01:30.645Z,74.20
2019-01-03T23:04:13.771Z,74.50
2019-01-03T23:07:03.660Z,74.80
2019-01-03T23:09:46.735Z,74.20
2019-01-03T23:12:29.292Z,74.60
2019-01-03T23:15:10.884Z,75.30
2019-01-03T23:17:57.882Z,74.00
2019-01-03T23:20:41.742Z,73.70
2019-01-03T23:23:24.561Z,73.10
2019-01-03T23:26:11.388Z,76.20
2019-01-03T23:28:53.571Z,76.10
2019-01-03T23:31:37.311Z,76.50
2019-01-03T23:34:21.359Z,77.90
2019-01-03T23:37:03.946Z,79.00
2019-01-03T23:39:47.609Z,76.50
2019-01-03T23:42:33.120Z,76.00
2019-01-03T23:45:34.755Z,79.30
2019-01-03T23:48:17.262Z,76.10
2019-01-03T23:51:00.694Z,79.20
2019-01-03T23:53:46.981Z,76.80
2019-01-03T23:56:30.586Z,75.70
2019-01-03T23:59:15.601Z,76.30
